METAR AND TAF INFORMATION
METAR FOR EHLW
ADDS - METARS form results

(2242 UTC 28 February 2021)
Data provider http://aviationweather.gov/metar/data/
 
METAR text: EHLW 282225Z AUTO 09005KT 030V150 0400 -UP OVC000 02/02 Q1037 RED
Conditions at: EHLW (LEEUWARDEN RNLAF, NL) observed 2225 UTC 28 February 2021
Temperature: 2.0°C (36°F)
Dewpoint: 2.0°C (36°F) [RH = 100%]
Pressure (altimeter): 30.62 inches Hg (1037.0 mb)
Winds: from the E (90 degrees) at 6 MPH (5 knots; 2.6 m/s)
Visibility: 0.25 miles (0.40 km)
Ceiling: 0 feet AGL
Clouds: overcast cloud deck at 0 feet AGL
Weather: UP  (unknown precipitation)

METAR text: EHLW 282155Z AUTO 09007KT 040V140 0400 -UP OVC000 02/02 Q1037 RED
Conditions at: EHLW (LEEUWARDEN RNLAF, NL) observed 2155 UTC 28 February 2021
Temperature: 2.0°C (36°F)
Dewpoint: 2.0°C (36°F) [RH = 100%]
Pressure (altimeter): 30.62 inches Hg (1037.0 mb)
Winds: from the E (90 degrees) at 8 MPH (7 knots; 3.6 m/s)
Visibility: 0.25 miles (0.40 km)
Ceiling: 0 feet AGL
Clouds: overcast cloud deck at 0 feet AGL
Weather: UP  (unknown precipitation)

Forecast for: EHLW (LEEUWARDEN RNLAF, NL)
Text: TAF EHLW 282117Z 2822/0110 06005KT 0200 FG VV000
Forecast period: 2200 UTC 28 February 2021 to 0800 UTC 01 March 2021
Forecast type: FROM: standard forecast or significant change
Winds: from the ENE (60 degrees) at 6 MPH (5 knots; 2.6 m/s)
Visibility: 0.12 miles (0.19 km)
Ceiling: indefinite ceiling with vertical visibility of 0 feet AGL
Clouds: obscured sky
Weather: FG  (fog)
Text: BECMG 0108/0110 1200 BR SCT002 BKN003
Forecast period: 0800 to 1000 UTC 01 March 2021
Forecast type: BECOMING: Conditions expected to become as follows by 1000 UTC 01 March 2021
Winds: from the ENE (60 degrees) at 6 MPH (5 knots; 2.6 m/s)
Visibility: 0.75 miles (1.21 km)
Ceiling: 300 feet AGL
Clouds: scattered clouds at 200 feet AGL
broken clouds at 300 feet AGL
Weather: BR  (mist)

 AIRPORT MAP

 RUNWAY INFORMATION
Runway 06 Runway length 9701 ft Runway width 164 ft
Runway elevation 4 ft Runway displaced threshold 847 ft Runway heading 55
Runway 24 Runway length 9701 ft Runway width 164 ft
Runway elevation 4 ft Runway displaced threshold 1053 ft Runway heading 235
Runway 09 Runway length 6559 ft Runway width 164 ft
Runway elevation 3 ft Runway displaced threshold 195 ft Runway heading 91
Runway 27 Runway length 6559 ft Runway width 164 ft
Runway elevation 4 ft Runway displaced threshold 0 ft Runway heading 271

 AIRPORT FREQUENCIES
Type APP Name RAPCON NOR Frequency 122.1 MHZ
Type DIR Name ARRIVAL Frequency 122.1 MHZ
Type GND Name GND Frequency 28.155 MHZ
Type TWR Name TWR Frequency 120.7 MHZ

 AIRPORT NEAR NAVIGATION AIDS
Type TACAN Name Leeuwarden Frequency 114700 KHZ